createdAt,value
2022-10-04T00:01:49.355Z,7.03
2022-10-04T00:04:22.854Z,7.97
2022-10-04T00:06:58.725Z,7.80
2022-10-04T00:09:32.034Z,14.02
2022-10-04T00:12:01.712Z,9.20
2022-10-04T00:14:32.723Z,10.40
2022-10-04T00:17:09.008Z,11.45
2022-10-04T00:19:45.024Z,9.23
2022-10-04T00:22:25.243Z,7.30
2022-10-04T00:25:34.308Z,12.90
2022-10-04T00:28:42.576Z,9.43
2022-10-04T00:31:23.076Z,7.15
2022-10-04T00:33:52.991Z,9.05
2022-10-04T00:36:52.491Z,9.43
2022-10-04T00:39:43.880Z,8.85
2022-10-04T00:42:33.799Z,12.90
2022-10-04T00:45:08.051Z,11.13
2022-10-04T00:47:57.028Z,10.83
2022-10-04T00:50:32.191Z,12.82
2022-10-04T00:53:03.646Z,15.75
2022-10-04T00:55:39.363Z,13.25
2022-10-04T00:58:15.520Z,15.23
2022-10-04T01:00:45.370Z,6.30
2022-10-04T01:03:18.234Z,9.15
2022-10-04T01:05:51.263Z,8.45
2022-10-04T01:08:25.550Z,7.45
2022-10-04T01:10:59.007Z,11.20
2022-10-04T01:13:31.982Z,9.27
2022-10-04T01:16:04.681Z,9.82
2022-10-04T01:18:34.587Z,9.25
2022-10-04T01:21:07.927Z,9.50
2022-10-04T01:23:43.091Z,11.30
2022-10-04T01:26:37.607Z,9.05
2022-10-04T01:29:12.684Z,12.37
2022-10-04T01:31:42.981Z,8.10
2022-10-04T01:34:15.018Z,11.02
2022-10-04T01:36:44.219Z,15.02
2022-10-04T01:39:14.367Z,9.90
2022-10-04T01:41:50.001Z,8.73
2022-10-04T01:44:24.119Z,9.83
2022-10-04T01:46:56.158Z,11.27
2022-10-04T01:49:30.122Z,8.85
2022-10-04T01:52:02.803Z,9.77
2022-10-04T01:54:38.377Z,11.13
2022-10-04T01:57:12.677Z,12.02
2022-10-04T01:59:45.973Z,8.65
2022-10-04T02:02:23.101Z,6.72
2022-10-04T02:04:58.356Z,7.85
2022-10-04T02:07:30.859Z,18.10
2022-10-04T02:10:03.545Z,9.50
2022-10-04T02:12:32.676Z,12.18
2022-10-04T02:15:02.865Z,10.25
2022-10-04T02:17:34.217Z,8.80
2022-10-04T02:20:04.189Z,11.88
2022-10-04T02:22:32.208Z,8.43
2022-10-04T02:25:01.820Z,17.02
2022-10-04T02:27:31.369Z,9.30
2022-10-04T02:30:03.874Z,10.13
2022-10-04T02:32:50.910Z,10.07
2022-10-04T02:35:20.247Z,9.90
2022-10-04T02:37:52.889Z,10.60
2022-10-04T02:40:27.859Z,9.30
2022-10-04T02:43:00.784Z,9.32
2022-10-04T02:45:38.681Z,8.88
2022-10-04T02:48:26.478Z,13.27
2022-10-04T02:50:56.579Z,9.10
2022-10-04T02:53:32.350Z,13.45
2022-10-04T02:56:03.345Z,9.38
2022-10-04T02:58:33.121Z,16.02
2022-10-04T03:01:01.755Z,12.30
2022-10-04T03:03:30.710Z,12.75
2022-10-04T03:06:03.115Z,10.95
2022-10-04T03:08:35.471Z,10.77
2022-10-04T03:11:06.132Z,10.65
2022-10-04T03:13:34.436Z,7.75
2022-10-04T03:16:02.654Z,10.68
2022-10-04T03:18:30.872Z,11.07
2022-10-04T03:20:59.203Z,10.05
2022-10-04T03:23:26.810Z,16.98
2022-10-04T03:26:02.042Z,14.15
2022-10-04T03:28:31.400Z,9.95
2022-10-04T03:30:59.585Z,8.55
2022-10-04T03:33:28.752Z,11.48
2022-10-04T03:35:58.684Z,13.10
2022-10-04T03:38:27.119Z,10.65
2022-10-04T03:40:57.705Z,10.38
2022-10-04T03:43:30.308Z,9.98
2022-10-04T03:46:01.487Z,12.23
2022-10-04T03:48:32.992Z,13.18
2022-10-04T03:51:03.884Z,16.48
2022-10-04T03:53:37.206Z,9.07
2022-10-04T03:56:12.270Z,12.50
2022-10-04T03:58:40.457Z,9.00
2022-10-04T04:01:21.080Z,12.60
2022-10-04T04:04:02.530Z,8.38
2022-10-04T04:06:39.099Z,10.85
2022-10-04T04:09:08.352Z,9.02
2022-10-04T04:11:37.582Z,7.82
2022-10-04T04:14:11.981Z,12.38
2022-10-04T04:16:41.515Z,14.20
2022-10-04T04:19:14.114Z,9.57
2022-10-04T04:21:43.060Z,12.90
2022-10-04T04:24:22.000Z,9.25
2022-10-04T04:26:55.338Z,7.35
2022-10-04T04:29:27.233Z,10.50
2022-10-04T04:32:01.225Z,11.68
2022-10-04T04:34:31.837Z,11.88
2022-10-04T04:37:01.111Z,8.88
2022-10-04T04:39:41.093Z,8.57
2022-10-04T04:42:16.667Z,11.75
2022-10-04T04:44:50.228Z,10.88
2022-10-04T04:47:29.845Z,13.55
2022-10-04T04:50:00.051Z,14.30
2022-10-04T04:52:30.355Z,10.73
2022-10-04T04:54:58.847Z,12.60
2022-10-04T04:57:26.931Z,11.05
2022-10-04T04:59:59.206Z,11.88
2022-10-04T05:02:34.912Z,12.82
2022-10-04T05:05:17.499Z,11.60
2022-10-04T05:07:45.331Z,9.40
2022-10-04T05:10:32.122Z,12.93
2022-10-04T05:13:01.299Z,10.40
2022-10-04T05:15:34.782Z,11.65
2022-10-04T05:18:17.656Z,10.65
2022-10-04T05:20:50.626Z,13.50
2022-10-04T05:23:18.469Z,12.30
2022-10-04T05:25:46.623Z,8.15
2022-10-04T05:28:15.920Z,9.68
2022-10-04T05:30:50.325Z,11.00
2022-10-04T05:33:26.575Z,8.80
2022-10-04T05:36:28.691Z,14.93
2022-10-04T05:39:03.826Z,11.27
2022-10-04T05:41:41.975Z,10.43
2022-10-04T05:44:23.928Z,11.15
2022-10-04T05:46:52.528Z,11.55
2022-10-04T05:49:24.067Z,21.95
2022-10-04T05:51:55.302Z,15.07
2022-10-04T05:54:25.404Z,13.77
2022-10-04T05:57:36.652Z,11.57
2022-10-04T06:00:13.709Z,18.05
2022-10-04T06:03:12.684Z,10.02
2022-10-04T06:05:51.622Z,8.40
2022-10-04T06:08:30.966Z,15.50
2022-10-04T06:11:09.828Z,9.55
2022-10-04T06:14:00.496Z,13.20
2022-10-04T06:16:44.166Z,15.48
2022-10-04T06:19:45.323Z,14.77
2022-10-04T06:22:19.085Z,11.13
2022-10-04T06:24:51.644Z,13.23
2022-10-04T06:27:25.345Z,9.80
2022-10-04T06:29:58.561Z,10.60
2022-10-04T06:33:04.012Z,10.95
2022-10-04T06:35:56.991Z,13.60
2022-10-04T06:39:12.036Z,9.43
2022-10-04T06:41:59.521Z,11.23
2022-10-04T06:44:46.261Z,10.25
2022-10-04T06:47:26.698Z,8.13
2022-10-04T06:50:01.080Z,10.70
2022-10-04T06:52:44.679Z,11.43
2022-10-04T06:55:46.235Z,6.83
2022-10-04T06:58:33.563Z,11.33
2022-10-04T07:01:06.545Z,7.50
2022-10-04T07:03:40.947Z,7.60
2022-10-04T07:06:11.764Z,8.27
2022-10-04T07:08:47.473Z,5.70
2022-10-04T07:11:22.217Z,10.73
2022-10-04T07:13:57.802Z,9.73
2022-10-04T07:16:32.272Z,7.23
2022-10-04T07:19:23.020Z,12.70
2022-10-04T07:21:57.719Z,8.30
2022-10-04T07:24:43.009Z,9.83
2022-10-04T07:27:18.797Z,5.93
2022-10-04T07:29:52.772Z,10.03
2022-10-04T07:32:24.279Z,10.97
2022-10-04T07:34:59.237Z,9.67
2022-10-04T07:37:30.839Z,10.20
2022-10-04T07:40:06.943Z,8.80
2022-10-04T07:42:46.213Z,6.20
2022-10-04T07:45:20.728Z,7.57
2022-10-04T07:47:48.851Z,6.13
2022-10-04T07:50:26.199Z,10.50
2022-10-04T07:52:59.998Z,6.80
2022-10-04T07:55:41.774Z,8.73
2022-10-04T07:58:43.383Z,10.10
2022-10-04T08:01:27.159Z,8.60
2022-10-04T08:04:12.540Z,9.50
2022-10-04T08:06:47.604Z,7.03
2022-10-04T08:09:43.179Z,9.73
2022-10-04T08:12:21.854Z,9.00
2022-10-04T08:14:56.789Z,8.20
2022-10-04T08:17:42.776Z,9.90
2022-10-04T08:20:32.885Z,11.30
2022-10-04T08:23:16.281Z,6.10
2022-10-04T08:25:55.170Z,7.07
2022-10-04T08:28:56.296Z,9.20
2022-10-04T08:31:38.878Z,5.27
2022-10-04T08:34:22.131Z,12.13
2022-10-04T08:37:03.618Z,12.07
2022-10-04T08:39:52.514Z,7.13
2022-10-04T08:42:59.030Z,10.07
2022-10-04T08:46:00.632Z,8.30
2022-10-04T08:49:02.477Z,6.67
2022-10-04T08:52:22.750Z,7.53
2022-10-04T08:55:22.920Z,5.70
2022-10-04T08:58:13.887Z,7.13
2022-10-04T09:01:29.179Z,5.80
2022-10-04T09:04:38.603Z,4.20
2022-10-04T09:07:39.306Z,7.10
2022-10-04T09:10:31.012Z,4.77
2022-10-04T09:13:14.143Z,6.50
2022-10-04T09:15:52.813Z,5.00
2022-10-04T09:18:23.906Z,7.10
2022-10-04T09:20:58.968Z,7.30
2022-10-04T09:24:04.203Z,6.57
2022-10-04T09:26:41.628Z,7.00
2022-10-04T09:29:28.370Z,7.03
2022-10-04T09:32:35.009Z,9.83
2022-10-04T09:35:29.795Z,7.10
2022-10-04T09:38:35.779Z,7.33
2022-10-04T09:41:23.439Z,7.30
2022-10-04T09:44:23.511Z,6.37
2022-10-04T09:47:12.245Z,5.53
2022-10-04T09:50:13.844Z,5.87
2022-10-04T09:52:52.067Z,4.90
2022-10-04T09:55:42.838Z,5.10
2022-10-04T09:58:43.210Z,7.80
2022-10-04T10:01:19.812Z,4.93
2022-10-04T10:04:11.876Z,8.03
2022-10-04T10:06:53.979Z,4.20
2022-10-04T10:09:48.480Z,5.37
2022-10-04T10:13:04.443Z,7.90
2022-10-04T10:15:40.880Z,4.83
2022-10-04T10:18:16.864Z,7.90
2022-10-04T10:21:03.436Z,8.23
2022-10-04T10:23:53.262Z,11.40
2022-10-04T10:26:44.162Z,4.33
2022-10-04T10:29:28.525Z,5.07
2022-10-04T10:32:21.664Z,6.77
2022-10-04T10:35:21.259Z,6.70
2022-10-04T10:38:05.037Z,7.50
2022-10-04T10:40:59.833Z,5.40
2022-10-04T10:43:52.533Z,6.80
2022-10-04T10:46:51.993Z,5.20
2022-10-04T10:49:45.306Z,4.73
2022-10-04T10:52:46.435Z,8.00
2022-10-04T10:55:33.239Z,4.00
2022-10-04T10:58:26.877Z,3.33
2022-10-04T11:01:08.475Z,6.10
2022-10-04T11:04:08.512Z,4.07
2022-10-04T11:06:58.032Z,4.80
2022-10-04T11:09:40.769Z,8.33
2022-10-04T11:12:56.760Z,5.03
2022-10-04T11:16:01.713Z,6.87
2022-10-04T11:18:51.927Z,7.00
2022-10-04T11:21:54.469Z,3.97
2022-10-04T11:24:44.950Z,5.03
2022-10-04T11:27:20.470Z,5.00
2022-10-04T11:30:00.300Z,4.53
2022-10-04T11:33:10.207Z,5.57
2022-10-04T11:35:54.621Z,6.00
2022-10-04T11:38:35.538Z,5.70
2022-10-04T11:41:16.324Z,4.57
2022-10-04T11:44:15.791Z,5.00
2022-10-04T11:46:49.868Z,4.10
2022-10-04T11:49:50.440Z,7.87
2022-10-04T11:52:49.525Z,4.20
2022-10-04T11:55:43.888Z,4.73
2022-10-04T11:58:17.869Z,3.53
2022-10-04T12:01:06.707Z,3.10
2022-10-04T12:04:03.260Z,8.30
2022-10-04T12:06:48.646Z,4.87
2022-10-04T12:09:27.578Z,4.60
2022-10-04T12:12:39.369Z,7.30
2022-10-04T12:15:31.617Z,5.20
2022-10-04T12:18:26.566Z,4.90
2022-10-04T12:21:20.096Z,2.90
2022-10-04T12:24:06.195Z,3.87
2022-10-04T12:26:53.351Z,2.37
2022-10-04T12:29:44.762Z,3.20
2022-10-04T12:32:18.389Z,4.13
2022-10-04T12:34:55.697Z,5.93
2022-10-04T12:37:31.200Z,5.50
2022-10-04T12:40:15.955Z,5.40
2022-10-04T12:42:55.771Z,3.70
2022-10-04T12:45:52.490Z,5.17
2022-10-04T12:48:42.997Z,3.73
2022-10-04T12:51:23.608Z,3.80
2022-10-04T12:54:01.141Z,4.20
2022-10-04T12:56:48.248Z,4.03
2022-10-04T12:59:34.583Z,5.40
2022-10-04T13:02:21.586Z,5.43
2022-10-04T13:04:53.835Z,3.70
2022-10-04T13:07:45.679Z,2.73
2022-10-04T13:10:31.366Z,3.97
2022-10-04T13:13:20.883Z,4.03
2022-10-04T13:18:54.690Z,4.80
2022-10-04T13:21:40.629Z,2.63
2022-10-04T13:24:16.049Z,3.20
2022-10-04T13:26:48.707Z,2.93
2022-10-04T13:29:26.110Z,9.10
2022-10-04T13:31:59.761Z,2.90
2022-10-04T13:34:37.293Z,5.60
2022-10-04T13:37:23.401Z,7.00
2022-10-04T13:40:25.313Z,4.30
2022-10-04T13:43:28.210Z,9.27
2022-10-04T13:46:07.610Z,4.57
2022-10-04T13:48:55.470Z,4.80
2022-10-04T13:52:11.967Z,5.40
2022-10-04T13:55:05.154Z,4.97
2022-10-04T13:57:41.423Z,4.93
2022-10-04T14:00:12.888Z,4.53
2022-10-04T14:03:03.611Z,5.37
2022-10-04T14:06:09.290Z,7.23
2022-10-04T14:09:04.302Z,3.93
2022-10-04T14:12:06.545Z,4.50
2022-10-04T14:14:57.420Z,5.53
2022-10-04T14:17:48.563Z,3.07
2022-10-04T14:20:47.199Z,7.63
2022-10-04T14:23:48.372Z,4.93
2022-10-04T14:26:50.826Z,3.50
2022-10-04T14:29:49.618Z,3.80
2022-10-04T14:33:00.849Z,8.23
2022-10-04T14:35:33.497Z,3.10
2022-10-04T14:38:25.901Z,6.50
2022-10-04T14:41:36.781Z,3.70
2022-10-04T14:44:32.593Z,3.23
2022-10-04T14:47:15.301Z,8.50
2022-10-04T14:49:57.933Z,4.33
2022-10-04T14:52:38.826Z,11.07
2022-10-04T14:55:26.152Z,4.40
2022-10-04T14:58:06.410Z,7.47
2022-10-04T15:00:57.089Z,3.37
2022-10-04T15:03:38.915Z,3.40
2022-10-04T15:06:12.927Z,6.17
2022-10-04T15:09:18.003Z,7.53
2022-10-04T15:12:21.565Z,5.37
2022-10-04T15:14:46.393Z,5.33
2022-10-04T15:17:28.988Z,4.90
2022-10-04T15:20:20.581Z,5.43
2022-10-04T15:22:53.915Z,8.10
2022-10-04T15:25:53.826Z,5.07
2022-10-04T15:29:00.248Z,8.60
2022-10-04T15:31:34.681Z,4.60
2022-10-04T15:34:13.632Z,4.13
2022-10-04T15:36:54.331Z,6.90
2022-10-04T15:39:49.174Z,8.60
2022-10-04T15:42:25.051Z,4.30
2022-10-04T15:45:18.545Z,8.17
2022-10-04T15:48:11.013Z,7.30
2022-10-04T15:50:55.708Z,8.60
2022-10-04T15:53:43.478Z,5.00
2022-10-04T15:56:23.305Z,8.10
2022-10-04T15:58:59.271Z,3.67
2022-10-04T16:01:50.981Z,6.40
2022-10-04T16:04:33.196Z,7.23
2022-10-04T16:07:25.377Z,6.33
2022-10-04T16:10:01.541Z,5.30
2022-10-04T16:12:33.087Z,4.13
2022-10-04T16:15:12.775Z,7.90
2022-10-04T16:18:15.070Z,5.10
2022-10-04T16:21:01.100Z,4.93
2022-10-04T16:23:33.252Z,5.87
2022-10-04T16:26:03.405Z,5.90
2022-10-04T16:29:15.962Z,7.67
2022-10-04T16:31:56.989Z,7.50
2022-10-04T16:34:46.263Z,4.43
2022-10-04T16:37:19.617Z,4.50
2022-10-04T16:40:03.474Z,5.47
2022-10-04T16:42:40.879Z,8.53
2022-10-04T16:45:36.681Z,6.20
2022-10-04T16:48:15.036Z,5.70
2022-10-04T16:50:57.685Z,7.70
2022-10-04T16:53:42.041Z,7.10
2022-10-04T16:56:16.423Z,7.07
2022-10-04T16:58:58.033Z,10.03
2022-10-04T17:01:55.471Z,8.30
2022-10-04T17:04:45.723Z,7.90
2022-10-04T17:07:25.986Z,8.93
2022-10-04T17:10:02.629Z,10.53
2022-10-04T17:12:45.435Z,7.17
2022-10-04T17:15:27.645Z,6.20
2022-10-04T17:18:01.552Z,7.70
2022-10-04T17:20:46.753Z,9.20
2022-10-04T17:23:30.082Z,12.43
2022-10-04T17:26:06.726Z,9.40
2022-10-04T17:28:51.216Z,9.23
2022-10-04T17:31:27.487Z,8.83
2022-10-04T17:34:05.677Z,8.13
2022-10-04T17:36:39.817Z,6.07
2022-10-04T17:39:23.019Z,6.30
2022-10-04T17:42:02.133Z,7.40
2022-10-04T17:44:48.833Z,6.07
2022-10-04T17:47:24.283Z,8.50
2022-10-04T17:50:18.101Z,8.50
2022-10-04T17:53:07.524Z,7.33
2022-10-04T17:55:46.815Z,8.90
2022-10-04T17:58:19.040Z,10.40
2022-10-04T18:00:55.619Z,14.57
2022-10-04T18:03:27.490Z,11.13
2022-10-04T18:05:58.648Z,10.30
2022-10-04T18:08:41.195Z,9.23
2022-10-04T18:11:19.780Z,12.03
2022-10-04T18:13:52.030Z,8.90
2022-10-04T18:16:27.542Z,8.57
2022-10-04T18:18:55.493Z,10.63
2022-10-04T18:21:27.387Z,12.40
2022-10-04T18:23:58.192Z,10.33
2022-10-04T18:26:29.136Z,9.40
2022-10-04T18:28:58.531Z,9.27
2022-10-04T18:31:38.124Z,11.93
2022-10-04T18:34:19.255Z,10.60
2022-10-04T18:36:53.581Z,9.87
2022-10-04T18:39:24.312Z,8.90
2022-10-04T18:42:00.593Z,9.83
2022-10-04T18:44:31.018Z,9.47
2022-10-04T18:47:02.156Z,11.10
2022-10-04T18:49:32.883Z,11.87
2022-10-04T18:52:14.853Z,6.57
2022-10-04T18:54:51.027Z,9.67
2022-10-04T18:57:27.760Z,8.57
2022-10-04T19:00:23.163Z,9.53
2022-10-04T19:03:02.940Z,8.87
2022-10-04T19:05:40.584Z,8.40
2022-10-04T19:08:28.992Z,12.53
2022-10-04T19:11:03.792Z,8.30
2022-10-04T19:13:38.728Z,7.80
2022-10-04T19:16:36.186Z,10.50
2022-10-04T19:19:21.669Z,15.17
2022-10-04T19:21:56.588Z,28.23
2022-10-04T19:24:50.678Z,27.00
2022-10-04T19:27:26.582Z,18.33
2022-10-04T19:30:13.239Z,18.77
2022-10-04T19:32:56.706Z,14.70
2022-10-04T19:35:40.522Z,16.13
2022-10-04T19:38:25.109Z,11.03
2022-10-04T19:41:00.654Z,12.23
2022-10-04T19:43:36.411Z,12.40
2022-10-04T19:46:16.080Z,10.73
2022-10-04T19:48:49.570Z,13.07
2022-10-04T19:51:26.524Z,10.53
2022-10-04T19:54:04.412Z,10.53
2022-10-04T19:56:35.829Z,9.30
2022-10-04T19:59:09.132Z,10.30
2022-10-04T20:01:38.602Z,8.90
2022-10-04T20:04:31.730Z,9.23
2022-10-04T20:07:02.766Z,8.00
2022-10-04T20:09:35.395Z,8.20
2022-10-04T20:12:03.364Z,9.90
2022-10-04T20:15:14.794Z,6.90
2022-10-04T20:17:43.571Z,7.90
2022-10-04T20:20:15.697Z,8.60
2022-10-04T20:23:00.372Z,9.73
2022-10-04T20:26:03.001Z,9.83
2022-10-04T20:28:41.675Z,8.70
2022-10-04T20:31:10.964Z,8.60
2022-10-04T20:33:51.450Z,10.63
2022-10-04T20:36:55.324Z,9.87
2022-10-04T20:40:00.226Z,9.87
2022-10-04T20:42:35.620Z,8.47
2022-10-04T20:45:20.805Z,10.13
2022-10-04T20:47:50.546Z,13.37
2022-10-04T20:50:43.169Z,7.90
2022-10-04T20:53:18.443Z,14.53
2022-10-04T20:55:46.753Z,10.27
2022-10-04T20:58:32.176Z,12.00
2022-10-04T21:01:10.872Z,12.10
2022-10-04T21:03:38.570Z,12.03
2022-10-04T21:06:08.281Z,10.43
2022-10-04T21:08:37.063Z,8.13
2022-10-04T21:11:15.410Z,10.10
2022-10-04T21:13:56.410Z,10.57
2022-10-04T21:16:35.444Z,9.90
2022-10-04T21:19:49.456Z,13.60
2022-10-04T21:22:36.976Z,9.83
2022-10-04T21:25:30.949Z,11.00
2022-10-04T21:28:36.040Z,16.47
2022-10-04T21:31:05.355Z,9.53
2022-10-04T21:33:34.177Z,9.17
2022-10-04T21:36:01.974Z,11.40
2022-10-04T21:38:29.796Z,11.83
2022-10-04T21:40:57.825Z,10.17
2022-10-04T21:43:26.327Z,11.00
2022-10-04T21:45:54.255Z,8.87
2022-10-04T21:48:23.415Z,12.13
2022-10-04T21:50:52.218Z,9.57
2022-10-04T21:53:20.272Z,14.37
2022-10-04T21:55:48.270Z,8.77
2022-10-04T21:58:15.912Z,8.47
2022-10-04T22:00:43.581Z,11.97
2022-10-04T22:03:11.277Z,8.03
2022-10-04T22:05:40.259Z,9.77
2022-10-04T22:08:07.896Z,8.67
2022-10-04T22:10:35.565Z,9.47
2022-10-04T22:13:03.148Z,12.73
2022-10-04T22:15:30.786Z,7.80
2022-10-04T22:17:58.400Z,10.33
2022-10-04T22:20:26.718Z,8.77
2022-10-04T22:22:57.456Z,9.73
2022-10-04T22:25:27.373Z,8.10
2022-10-04T22:27:55.535Z,9.50
2022-10-04T22:30:26.607Z,9.70
2022-10-04T22:32:56.276Z,11.47
2022-10-04T22:35:24.348Z,8.00
2022-10-04T22:37:52.061Z,10.10
2022-10-04T22:40:22.922Z,9.80
2022-10-04T22:42:53.030Z,10.40
2022-10-04T22:45:23.940Z,12.23
2022-10-04T22:47:52.511Z,7.80
2022-10-04T22:50:29.371Z,10.80
2022-10-04T22:52:57.486Z,11.00
2022-10-04T22:55:26.758Z,10.37
2022-10-04T22:57:54.394Z,10.10
2022-10-04T23:00:22.025Z,10.60
2022-10-04T23:02:49.867Z,10.03
2022-10-04T23:05:19.831Z,14.00
2022-10-04T23:07:49.309Z,7.77
2022-10-04T23:10:18.872Z,12.93
2022-10-04T23:12:48.956Z,7.70
2022-10-04T23:15:18.839Z,11.57
2022-10-04T23:17:51.828Z,6.80
2022-10-04T23:20:21.283Z,8.93
2022-10-04T23:22:51.444Z,9.87
2022-10-04T23:25:20.930Z,8.00
2022-10-04T23:27:50.082Z,8.13
2022-10-04T23:30:20.531Z,14.43
2022-10-04T23:32:50.052Z,8.70
2022-10-04T23:35:21.768Z,7.80
2022-10-04T23:37:49.902Z,7.07
2022-10-04T23:40:19.816Z,15.27
2022-10-04T23:42:49.453Z,9.57
2022-10-04T23:45:21.183Z,10.27
2022-10-04T23:47:51.009Z,8.23
2022-10-04T23:50:22.673Z,10.30
2022-10-04T23:52:52.777Z,9.83
2022-10-04T23:55:22.152Z,8.27
2022-10-04T23:57:50.193Z,8.30
